createdAt,value
2017-08-25T00:01:13.073Z,6.13
2017-08-25T00:03:40.594Z,5.80
2017-08-25T00:06:08.125Z,5.93
2017-08-25T00:08:35.757Z,5.80
2017-08-25T00:11:03.317Z,7.10
2017-08-25T00:13:30.881Z,6.40
2017-08-25T00:15:58.441Z,6.27
2017-08-25T00:18:25.965Z,5.50
2017-08-25T00:20:53.553Z,6.13
2017-08-25T00:23:21.117Z,6.73
2017-08-25T00:25:48.678Z,5.93
2017-08-25T00:28:16.188Z,6.47
2017-08-25T00:30:43.728Z,7.47
2017-08-25T00:33:11.250Z,6.67
2017-08-25T00:35:38.772Z,6.97
2017-08-25T00:38:06.312Z,7.17
2017-08-25T00:40:33.870Z,7.40
2017-08-25T00:43:01.395Z,7.83
2017-08-25T00:45:28.950Z,7.27
2017-08-25T00:47:56.506Z,6.77
2017-08-25T00:50:24.070Z,7.57
2017-08-25T00:52:51.642Z,9.40
2017-08-25T00:55:19.162Z,7.67
2017-08-25T00:57:46.745Z,7.70
2017-08-25T01:00:14.309Z,7.30
2017-08-25T01:02:41.830Z,7.07
2017-08-25T01:05:09.414Z,7.90
2017-08-25T01:07:36.953Z,9.17
2017-08-25T01:10:05.261Z,8.03
2017-08-25T01:12:32.785Z,8.33
2017-08-25T01:15:00.383Z,8.20
2017-08-25T01:17:27.892Z,7.97
2017-08-25T01:19:55.413Z,9.40
2017-08-25T01:22:22.960Z,8.63
2017-08-25T01:24:50.487Z,7.93
2017-08-25T01:27:18.000Z,8.27
2017-08-25T01:29:45.536Z,8.93
2017-08-25T01:32:13.108Z,9.47
2017-08-25T01:34:40.627Z,8.17
2017-08-25T01:37:08.188Z,9.07
2017-08-25T01:39:36.473Z,9.00
2017-08-25T01:42:04.050Z,9.03
2017-08-25T01:44:31.618Z,10.30
2017-08-25T01:46:59.140Z,10.23
2017-08-25T01:49:26.673Z,11.07
2017-08-25T01:51:54.298Z,9.50
2017-08-25T01:54:21.850Z,9.63
2017-08-25T01:56:49.370Z,9.57
2017-08-25T01:59:16.914Z,11.17
2017-08-25T02:01:44.433Z,10.27
2017-08-25T02:04:11.985Z,10.70
2017-08-25T02:06:39.541Z,12.13
2017-08-25T02:09:07.105Z,13.73
2017-08-25T02:11:34.665Z,10.87
2017-08-25T02:14:02.225Z,11.73
2017-08-25T02:16:29.785Z,13.77
2017-08-25T02:18:57.302Z,12.10
2017-08-25T02:21:25.615Z,11.97
2017-08-25T02:23:53.141Z,12.53
2017-08-25T02:26:20.747Z,14.93
2017-08-25T02:28:48.297Z,12.90
2017-08-25T02:31:15.824Z,14.17
2017-08-25T02:33:43.514Z,14.20
2017-08-25T02:36:11.053Z,14.83
2017-08-25T02:38:38.588Z,15.57
2017-08-25T02:41:06.137Z,16.20
2017-08-25T02:43:33.682Z,17.83
2017-08-25T02:46:01.322Z,17.80
2017-08-25T02:48:28.848Z,17.43
2017-08-25T02:50:56.421Z,16.73
2017-08-25T02:53:23.982Z,17.23
2017-08-25T02:55:51.565Z,19.17
2017-08-25T02:58:19.116Z,18.80
2017-08-25T03:00:46.693Z,20.60
2017-08-25T03:03:14.242Z,17.17
2017-08-25T03:05:41.788Z,21.03
2017-08-25T03:08:09.313Z,19.97
2017-08-25T03:10:37.614Z,20.37
2017-08-25T03:13:05.161Z,17.60
2017-08-25T03:15:32.693Z,20.27
2017-08-25T03:18:00.237Z,18.60
2017-08-25T03:20:27.885Z,18.83
2017-08-25T03:22:55.405Z,20.73
2017-08-25T06:36:13.615Z,8.00
2017-08-25T06:38:58.938Z,7.40
2017-08-25T08:06:52.168Z,3.57
2017-08-25T08:09:19.734Z,5.77
2017-08-25T08:11:47.289Z,3.13
2017-08-25T08:14:14.830Z,4.63
2017-08-25T08:35:46.135Z,4.37
2017-08-25T08:38:13.761Z,4.33
2017-08-25T08:40:41.345Z,3.83
2017-08-25T08:43:10.708Z,4.43
2017-08-25T08:45:38.307Z,5.13
2017-08-25T08:48:05.830Z,6.00
2017-08-25T08:50:34.246Z,4.97
2017-08-25T08:53:01.809Z,4.83
2017-08-25T08:55:29.364Z,3.70
2017-08-25T08:57:56.927Z,4.90
2017-08-25T09:00:24.453Z,3.67
2017-08-25T09:02:52.046Z,5.83
2017-08-25T09:05:34.180Z,5.60
2017-08-25T09:08:01.708Z,4.60
2017-08-25T09:10:29.226Z,4.90
2017-08-25T09:12:56.833Z,4.90
2017-08-25T09:15:24.371Z,3.30
2017-08-25T09:17:51.898Z,7.00
2017-08-25T09:20:19.509Z,4.30
2017-08-25T09:22:47.054Z,4.80
2017-08-25T09:25:14.589Z,4.50
2017-08-25T09:27:42.190Z,3.93
2017-08-25T09:30:09.745Z,4.23
2017-08-25T09:32:37.269Z,4.40
2017-08-25T09:35:04.877Z,6.60
2017-08-25T09:37:32.397Z,5.50
2017-08-25T09:39:59.913Z,3.63
2017-08-25T09:42:27.587Z,4.10
2017-08-25T09:44:55.227Z,4.03
2017-08-25T09:47:22.769Z,3.83
2017-08-25T09:49:50.310Z,4.13
2017-08-25T09:52:17.880Z,5.37
2017-08-25T09:54:45.405Z,4.40
2017-08-25T09:57:12.951Z,5.17
2017-08-25T09:59:40.464Z,4.90
2017-08-25T10:02:08.022Z,3.70
2017-08-25T10:04:35.580Z,4.20
2017-08-25T10:07:03.136Z,5.50
2017-08-25T10:09:30.694Z,5.53
2017-08-25T10:11:58.257Z,4.13
2017-08-25T10:14:25.782Z,4.20
2017-08-25T10:16:53.310Z,4.27
2017-08-25T10:19:20.851Z,4.80
2017-08-25T10:21:48.394Z,4.30
2017-08-25T10:24:15.953Z,4.93
2017-08-25T10:26:43.517Z,5.77
2017-08-25T10:29:11.072Z,4.07
2017-08-25T10:31:38.639Z,4.20
2017-08-25T10:34:17.957Z,4.13
2017-08-25T10:36:57.405Z,4.93
2017-08-25T10:39:36.785Z,3.20
2017-08-25T10:42:16.103Z,3.90
2017-08-25T10:58:08.102Z,3.33
2017-08-25T11:00:35.630Z,3.17
2017-08-25T11:03:03.158Z,3.33
2017-08-25T11:05:30.700Z,2.70
2017-08-25T11:07:58.238Z,3.30
2017-08-25T11:10:25.822Z,3.80
2017-08-25T11:12:53.457Z,2.67
2017-08-25T11:15:20.978Z,3.73
2017-08-25T11:17:48.509Z,2.47
2017-08-25T11:20:16.131Z,2.83
2017-08-25T11:22:43.649Z,4.27
2017-08-25T11:25:11.189Z,2.57
2017-08-25T11:27:38.817Z,2.50
2017-08-25T11:30:06.341Z,2.93
2017-08-25T11:32:33.867Z,3.00
2017-08-25T11:35:01.863Z,2.77
2017-08-25T11:37:30.181Z,2.20
2017-08-25T11:39:57.693Z,2.23
2017-08-25T11:42:25.295Z,2.43
2017-08-25T11:44:52.817Z,2.47
2017-08-25T11:47:20.425Z,2.60
2017-08-25T11:49:48.085Z,2.70
2017-08-25T11:52:15.636Z,2.55
2017-08-25T11:54:43.157Z,2.35
2017-08-25T11:57:10.768Z,2.65
2017-08-25T11:59:38.291Z,2.53
2017-08-25T12:02:05.818Z,2.78
2017-08-25T12:04:33.373Z,5.03
2017-08-25T12:07:01.328Z,2.50
2017-08-25T12:09:29.044Z,2.60
2017-08-25T12:11:56.630Z,1.70
2017-08-25T12:14:24.156Z,3.95
2017-08-25T12:16:51.682Z,2.67
2017-08-25T12:19:19.313Z,3.00
2017-08-25T12:21:46.866Z,2.58
2017-08-25T12:24:14.503Z,2.95
2017-08-25T12:26:42.097Z,2.90
2017-08-25T12:29:09.649Z,2.78
2017-08-25T12:31:37.169Z,3.00
2017-08-25T12:34:04.713Z,2.70
2017-08-25T12:36:32.321Z,2.20
2017-08-25T12:38:59.883Z,2.65
2017-08-25T12:41:27.429Z,2.35
2017-08-25T12:43:54.957Z,2.70
2017-08-25T12:46:22.685Z,2.62
2017-08-25T12:48:50.339Z,2.83
2017-08-25T12:51:17.885Z,2.60
2017-08-25T12:53:45.409Z,2.97
2017-08-25T12:56:12.952Z,3.15
2017-08-25T12:58:40.578Z,3.05
2017-08-25T13:01:08.110Z,3.10
2017-08-25T13:03:35.690Z,2.35
2017-08-25T13:06:03.226Z,3.15
2017-08-25T13:08:30.774Z,3.12
2017-08-25T13:10:59.171Z,2.87
2017-08-25T13:13:26.709Z,3.45
2017-08-25T13:15:54.234Z,2.45
2017-08-25T13:18:21.873Z,3.37
2017-08-25T13:20:49.426Z,3.40
2017-08-25T13:23:16.986Z,2.92
2017-08-25T13:25:44.541Z,3.15
2017-08-25T13:28:12.061Z,2.95
2017-08-25T13:30:39.579Z,2.60
2017-08-25T13:33:07.217Z,2.87
2017-08-25T13:35:34.739Z,2.72
2017-08-25T13:38:02.261Z,3.42
2017-08-25T13:40:29.907Z,2.70
2017-08-25T13:42:57.429Z,2.83
2017-08-25T13:45:25.119Z,3.15
2017-08-25T13:47:52.668Z,2.92
2017-08-25T13:50:20.185Z,2.72
2017-08-25T13:52:47.801Z,2.85
2017-08-25T13:55:15.357Z,2.90
2017-08-25T13:57:42.878Z,2.80
2017-08-25T14:00:10.482Z,2.92
2017-08-25T14:02:38.038Z,3.92
2017-08-25T14:05:05.594Z,3.28
2017-08-25T14:07:33.114Z,3.37
2017-08-25T14:10:00.661Z,2.90
2017-08-25T14:12:28.222Z,3.12
2017-08-25T14:14:55.841Z,3.00
2017-08-25T14:17:23.402Z,3.45
2017-08-25T14:19:50.958Z,3.05
2017-08-25T14:22:18.525Z,3.03
2017-08-25T14:24:46.083Z,2.95
2017-08-25T14:27:13.609Z,3.03
2017-08-25T14:29:41.140Z,3.37
2017-08-25T14:32:08.673Z,3.05
2017-08-25T14:34:37.028Z,3.10
2017-08-25T14:37:04.546Z,2.90
2017-08-25T14:39:32.093Z,2.80
2017-08-25T14:41:59.622Z,3.25
2017-08-25T14:44:27.164Z,3.85
2017-08-25T14:46:54.728Z,3.12
2017-08-25T14:49:22.250Z,3.00
2017-08-25T14:51:49.772Z,2.97
2017-08-25T14:54:17.402Z,3.45
2017-08-25T14:56:44.926Z,3.17
2017-08-25T14:59:12.447Z,3.20
2017-08-25T15:01:40.090Z,3.30
2017-08-25T15:04:07.642Z,3.12
2017-08-25T15:06:35.158Z,3.58
2017-08-25T15:09:02.706Z,3.55
2017-08-25T15:11:30.238Z,2.87
2017-08-25T15:13:57.766Z,3.53
2017-08-25T15:16:25.310Z,3.42
2017-08-25T15:18:52.842Z,3.40
2017-08-25T15:21:20.370Z,4.27
2017-08-25T15:23:48.021Z,5.13
2017-08-25T15:26:15.583Z,5.97
2017-08-25T15:28:43.133Z,4.93
2017-08-25T15:31:10.738Z,5.00
2017-08-25T15:33:38.257Z,4.90
2017-08-25T15:36:05.854Z,5.93
2017-08-25T15:38:33.485Z,3.73
2017-08-25T15:41:01.001Z,4.13
2017-08-25T15:43:28.599Z,4.23
2017-08-25T15:45:56.139Z,3.93
2017-08-25T15:48:23.719Z,5.93
2017-08-25T15:50:51.275Z,9.33
2017-08-25T15:53:18.808Z,7.77
2017-08-25T15:55:47.093Z,4.57
2017-08-25T15:58:14.630Z,4.63
2017-08-25T16:00:42.169Z,6.90
2017-08-25T16:03:10.587Z,4.90
2017-08-25T16:05:38.112Z,5.20
2017-08-25T16:08:05.648Z,4.30
2017-08-25T16:10:33.160Z,4.70
2017-08-25T16:13:00.677Z,4.20
2017-08-25T16:15:28.216Z,5.30
2017-08-25T16:17:55.754Z,5.80
2017-08-25T16:20:23.272Z,9.90
2017-08-25T16:22:50.818Z,6.07
2017-08-25T16:25:18.357Z,5.70
2017-08-25T16:27:45.903Z,5.83
2017-08-25T16:30:13.442Z,4.80
2017-08-25T16:32:41.018Z,5.67
2017-08-25T16:35:08.571Z,4.77
2017-08-25T16:37:36.114Z,5.33
2017-08-25T16:40:03.641Z,5.33
2017-08-25T16:42:31.258Z,10.80
2017-08-25T16:44:58.810Z,11.10
2017-08-25T16:47:26.379Z,9.07
2017-08-25T16:49:53.950Z,8.90
2017-08-25T16:52:21.518Z,7.20
2017-08-25T16:54:49.062Z,4.67
2017-08-25T16:57:16.622Z,4.77
2017-08-25T16:59:44.167Z,6.80
2017-08-25T17:02:11.733Z,5.43
2017-08-25T17:04:39.269Z,4.70
2017-08-25T17:07:06.861Z,3.97
2017-08-25T17:09:34.373Z,4.40
2017-08-25T17:12:01.985Z,10.10
2017-08-25T17:14:29.545Z,6.00
2017-08-25T17:16:57.499Z,4.77
2017-08-25T17:19:25.145Z,4.37
2017-08-25T17:21:52.935Z,5.33
2017-08-25T17:24:20.498Z,3.83
2017-08-25T17:26:48.042Z,4.80
2017-08-25T17:29:15.586Z,4.00
2017-08-25T17:31:45.301Z,4.40
2017-08-25T17:34:12.874Z,4.60
2017-08-25T17:36:40.408Z,4.50
2017-08-25T17:39:07.982Z,5.63
2017-08-25T17:41:35.554Z,4.97
2017-08-25T17:44:03.106Z,7.60
2017-08-25T17:46:30.672Z,4.40
2017-08-25T17:48:58.215Z,5.33
2017-08-25T17:51:25.758Z,6.13
2017-08-25T17:53:54.077Z,7.67
2017-08-25T17:56:21.606Z,8.03
2017-08-25T17:58:49.173Z,6.00
2017-08-25T18:01:16.701Z,6.27
2017-08-25T18:03:44.311Z,4.83
2017-08-25T18:06:11.853Z,6.10
2017-08-25T18:08:39.425Z,13.57
2017-08-25T18:11:07.069Z,9.93
2017-08-25T18:13:34.617Z,5.97
2017-08-25T18:16:02.899Z,6.20
2017-08-25T18:18:30.497Z,7.27
2017-08-25T18:20:58.035Z,7.07
2017-08-25T18:23:25.594Z,8.57
2017-08-25T18:25:53.161Z,9.00
2017-08-25T18:28:20.711Z,18.87
2017-08-25T18:30:48.281Z,8.57
2017-08-25T18:33:15.800Z,8.80
2017-08-25T18:35:43.404Z,12.60
2017-08-25T18:38:10.944Z,46.73
2017-08-25T18:40:38.491Z,16.57
2017-08-25T18:43:06.056Z,8.83
2017-08-25T18:45:33.636Z,9.80
2017-08-25T18:48:01.158Z,9.13
2017-08-25T18:50:28.795Z,9.87
2017-08-25T18:52:56.340Z,7.97
2017-08-25T18:55:23.882Z,8.57
2017-08-25T18:57:51.463Z,10.33
2017-08-25T19:00:19.092Z,7.70
2017-08-25T19:02:46.687Z,7.50
2017-08-25T19:05:15.047Z,6.40
2017-08-25T19:07:43.495Z,7.17
2017-08-25T19:10:11.093Z,7.40
2017-08-25T19:12:38.742Z,8.80
2017-08-25T19:15:06.283Z,9.23
2017-08-25T19:17:33.880Z,8.53
2017-08-25T19:20:01.427Z,7.53
2017-08-25T19:22:29.084Z,7.10
2017-08-25T19:24:56.611Z,8.30
2017-08-25T19:27:24.233Z,7.53
2017-08-25T19:29:51.887Z,7.10
2017-08-25T19:32:19.441Z,12.70
2017-08-25T19:34:46.989Z,11.60
2017-08-25T19:37:14.913Z,10.10
2017-08-25T19:39:42.493Z,7.70
2017-08-25T19:42:10.126Z,10.17
2017-08-25T19:44:37.673Z,16.93
2017-08-25T19:47:07.088Z,23.13
2017-08-25T19:49:34.656Z,15.60
2017-08-25T19:52:02.273Z,14.77
2017-08-25T19:54:30.746Z,15.37
2017-08-25T19:56:58.388Z,15.47
2017-08-25T19:59:25.935Z,12.13
2017-08-25T20:01:53.474Z,14.53
2017-08-25T20:04:21.172Z,12.93
2017-08-25T20:06:48.716Z,16.73
2017-08-25T20:09:16.242Z,35.27
2017-08-25T20:11:44.656Z,17.10
2017-08-25T20:14:12.237Z,13.20
2017-08-25T20:16:39.768Z,10.83
2017-08-25T20:19:07.353Z,20.40
2017-08-25T20:21:34.999Z,23.53
2017-08-25T20:24:03.281Z,13.27
2017-08-25T20:26:31.697Z,11.00
2017-08-25T20:28:59.235Z,12.90
2017-08-25T20:31:26.767Z,16.63
2017-08-25T20:33:54.447Z,12.77
2017-08-25T20:36:21.973Z,12.50
2017-08-25T20:38:49.492Z,10.83
2017-08-25T20:41:17.118Z,8.87
2017-08-25T20:43:44.664Z,8.53
2017-08-25T20:46:12.242Z,9.60
2017-08-25T20:48:39.797Z,9.03
2017-08-25T20:51:07.358Z,8.43
2017-08-25T20:53:34.922Z,8.53
2017-08-25T20:56:02.481Z,8.20
2017-08-25T20:58:30.038Z,9.33
2017-08-25T21:00:57.563Z,8.13
2017-08-25T21:03:25.170Z,9.13
2017-08-25T21:05:52.690Z,9.40
2017-08-25T21:08:20.217Z,21.67
2017-08-25T21:10:47.865Z,11.77
2017-08-25T21:13:15.406Z,7.63
2017-08-25T21:15:42.949Z,8.37
2017-08-25T21:18:10.489Z,9.10
2017-08-25T21:20:38.006Z,7.83
2017-08-25T21:23:05.633Z,7.90
2017-08-25T21:25:33.169Z,8.77
2017-08-25T21:28:00.754Z,8.53
2017-08-25T21:30:29.037Z,7.17
2017-08-25T21:32:56.589Z,7.33
2017-08-25T21:35:24.108Z,8.53
2017-08-25T21:37:51.725Z,7.17
2017-08-25T21:40:19.268Z,7.90
2017-08-25T21:42:46.788Z,7.73
2017-08-25T21:45:14.327Z,7.63
2017-08-25T21:47:41.963Z,8.10
2017-08-25T21:50:09.504Z,8.50
2017-08-25T21:52:37.047Z,7.73
2017-08-25T21:55:04.626Z,8.40
2017-08-25T21:57:32.184Z,7.50
2017-08-25T22:00:00.220Z,7.50
2017-08-25T22:02:27.920Z,7.77
2017-08-25T22:04:55.450Z,7.50
2017-08-25T22:07:22.970Z,6.80
2017-08-25T22:09:50.618Z,8.03
2017-08-25T22:12:18.157Z,7.60
2017-08-25T22:14:45.694Z,7.27
2017-08-25T22:17:13.286Z,7.70
2017-08-25T22:19:40.806Z,7.70
2017-08-25T22:22:08.325Z,8.53
2017-08-25T22:24:35.870Z,7.50
2017-08-25T22:27:03.423Z,9.20
2017-08-25T22:29:31.073Z,7.70
2017-08-25T22:31:58.639Z,7.80
2017-08-25T22:34:26.169Z,9.30
2017-08-25T22:36:53.757Z,8.70
2017-08-25T22:39:21.308Z,6.97
2017-08-25T22:41:48.829Z,8.30
2017-08-25T22:44:16.434Z,8.30
2017-08-25T22:46:43.991Z,8.27
2017-08-25T22:49:11.514Z,9.10
2017-08-25T22:51:39.518Z,8.53
2017-08-25T22:54:07.060Z,9.03
2017-08-25T22:56:34.642Z,8.23
2017-08-25T22:59:02.167Z,8.30
2017-08-25T23:01:29.708Z,8.70
2017-08-25T23:03:57.326Z,8.80
2017-08-25T23:06:24.858Z,9.30
2017-08-25T23:08:52.572Z,9.63
2017-08-25T23:11:20.102Z,9.87
2017-08-25T23:13:47.622Z,10.80
2017-08-25T23:16:15.163Z,9.70
2017-08-25T23:18:42.781Z,10.70
2017-08-25T23:21:10.306Z,9.70
2017-08-25T23:23:37.918Z,9.90
2017-08-25T23:26:05.449Z,11.80
2017-08-25T23:28:33.022Z,10.07
2017-08-25T23:31:00.611Z,11.20
2017-08-25T23:33:28.233Z,10.60
2017-08-25T23:35:55.802Z,10.57
2017-08-25T23:38:23.352Z,10.83
2017-08-25T23:40:50.915Z,12.87
2017-08-25T23:43:18.481Z,11.20
2017-08-25T23:45:46.133Z,10.43
2017-08-25T23:48:13.697Z,10.87
2017-08-25T23:50:41.212Z,11.03
2017-08-25T23:53:08.825Z,10.40
2017-08-25T23:55:36.379Z,11.40
2017-08-25T23:58:03.913Z,11.20
